sensor_id;sensor_type;location;lat;lon;timestamp;temperature;humidity
7204;DHT22;3643;52.460;13.322;2023-02-15T00:00:11;2.80;99.90
7204;DHT22;3643;52.460;13.322;2023-02-15T00:02:39;2.70;99.90
7204;DHT22;3643;52.460;13.322;2023-02-15T00:05:08;2.70;99.90
7204;DHT22;3643;52.460;13.322;2023-02-15T00:07:37;2.60;99.90
7204;DHT22;3643;52.460;13.322;2023-02-15T00:10:07;2.60;99.90
7204;DHT22;3643;52.460;13.322;2023-02-15T00:12:36;2.50;99.90
7204;DHT22;3643;52.460;13.322;2023-02-15T00:15:05;2.50;99.90
7204;DHT22;3643;52.460;13.322;2023-02-15T00:17:35;2.40;99.90
7204;DHT22;3643;52.460;13.322;2023-02-15T00:20:05;2.40;99.90
7204;DHT22;3643;52.460;13.322;2023-02-15T00:22:33;2.40;99.90
7204;DHT22;3643;52.460;13.322;2023-02-15T00:25:02;2.40;99.90
7204;DHT22;3643;52.460;13.322;2023-02-15T00:27:31;2.30;99.90
7204;DHT22;3643;52.460;13.322;2023-02-15T00:30:01;2.30;99.90
7204;DHT22;3643;52.460;13.322;2023-02-15T00:32:29;2.30;99.90
7204;DHT22;3643;52.460;13.322;2023-02-15T00:34:59;2.30;99.90
7204;DHT22;3643;52.460;13.322;2023-02-15T00:37:28;2.30;99.90
7204;DHT22;3643;52.460;13.322;2023-02-15T00:39:57;2.20;99.90
7204;DHT22;3643;52.460;13.322;2023-02-15T00:42:25;2.20;99.90
7204;DHT22;3643;52.460;13.322;2023-02-15T00:44:54;2.20;99.90
7204;DHT22;3643;52.460;13.322;2023-02-15T00:47:22;2.20;99.90
7204;DHT22;3643;52.460;13.322;2023-02-15T00:49:52;2.20;99.90
7204;DHT22;3643;52.460;13.322;2023-02-15T00:52:22;2.10;99.90
7204;DHT22;3643;52.460;13.322;2023-02-15T00:54:51;2.10;99.90
7204;DHT22;3643;52.460;13.322;2023-02-15T00:57:19;2.10;99.90
7204;DHT22;3643;52.460;13.322;2023-02-15T00:59:48;2.10;99.90
7204;DHT22;3643;52.460;13.322;2023-02-15T01:02:16;2.00;99.90
7204;DHT22;3643;52.460;13.322;2023-02-15T01:04:45;2.10;99.90
7204;DHT22;3643;52.460;13.322;2023-02-15T01:07:13;2.10;99.90
7204;DHT22;3643;52.460;13.322;2023-02-15T01:09:43;2.10;99.90
7204;DHT22;3643;52.460;13.322;2023-02-15T01:12:12;2.00;99.90
7204;DHT22;3643;52.460;13.322;2023-02-15T01:14:41;2.00;99.90
7204;DHT22;3643;52.460;13.322;2023-02-15T01:17:09;2.00;99.90
7204;DHT22;3643;52.460;13.322;2023-02-15T01:19:38;2.00;99.90
7204;DHT22;3643;52.460;13.322;2023-02-15T01:22:06;2.00;99.90
7204;DHT22;3643;52.460;13.322;2023-02-15T01:24:35;2.10;99.90
7204;DHT22;3643;52.460;13.322;2023-02-15T01:27:05;2.00;99.90
7204;DHT22;3643;52.460;13.322;2023-02-15T01:29:34;2.00;99.90
7204;DHT22;3643;52.460;13.322;2023-02-15T01:32:03;1.90;99.90
7204;DHT22;3643;52.460;13.322;2023-02-15T01:34:32;1.90;99.90
7204;DHT22;3643;52.460;13.322;2023-02-15T01:37:00;1.90;99.90
7204;DHT22;3643;52.460;13.322;2023-02-15T01:39:29;1.90;99.90
7204;DHT22;3643;52.460;13.322;2023-02-15T01:41:57;1.90;99.90
7204;DHT22;3643;52.460;13.322;2023-02-15T01:44:58;1.90;99.90
7204;DHT22;3643;52.460;13.322;2023-02-15T01:47:32;1.90;99.90
7204;DHT22;3643;52.460;13.322;2023-02-15T01:50:08;1.90;99.90
7204;DHT22;3643;52.460;13.322;2023-02-15T01:52:42;1.80;99.90
7204;DHT22;3643;52.460;13.322;2023-02-15T01:55:12;1.80;99.90
7204;DHT22;3643;52.460;13.322;2023-02-15T01:57:42;1.80;99.90
7204;DHT22;3643;52.460;13.322;2023-02-15T02:00:14;1.80;99.90
7204;DHT22;3643;52.460;13.322;2023-02-15T02:02:46;1.80;99.90
7204;DHT22;3643;52.460;13.322;2023-02-15T02:05:16;1.80;99.90
7204;DHT22;3643;52.460;13.322;2023-02-15T02:07:45;1.80;99.90
7204;DHT22;3643;52.460;13.322;2023-02-15T02:10:18;1.80;99.90
7204;DHT22;3643;52.460;13.322;2023-02-15T02:12:50;1.80;99.90
7204;DHT22;3643;52.460;13.322;2023-02-15T02:15:27;1.70;99.90
7204;DHT22;3643;52.460;13.322;2023-02-15T02:18:07;1.70;99.90
7204;DHT22;3643;52.460;13.322;2023-02-15T02:24:14;1.70;99.90
7204;DHT22;3643;52.460;13.322;2023-02-15T02:27:17;1.60;99.90
7204;DHT22;3643;52.460;13.322;2023-02-15T02:33:31;1.60;99.90
7204;DHT22;3643;52.460;13.322;2023-02-15T02:36:14;1.60;99.90
7204;DHT22;3643;52.460;13.322;2023-02-15T02:38:54;1.60;99.90
7204;DHT22;3643;52.460;13.322;2023-02-15T02:41:32;1.60;99.90
7204;DHT22;3643;52.460;13.322;2023-02-15T02:44:13;1.50;99.90
7204;DHT22;3643;52.460;13.322;2023-02-15T02:46:53;1.50;99.90
7204;DHT22;3643;52.460;13.322;2023-02-15T02:49:33;1.50;99.90
7204;DHT22;3643;52.460;13.322;2023-02-15T02:52:04;1.50;99.90
7204;DHT22;3643;52.460;13.322;2023-02-15T02:54:34;1.50;99.90
7204;DHT22;3643;52.460;13.322;2023-02-15T02:57:05;1.50;99.90
7204;DHT22;3643;52.460;13.322;2023-02-15T02:59:39;1.50;99.90
7204;DHT22;3643;52.460;13.322;2023-02-15T03:02:13;1.50;99.90
7204;DHT22;3643;52.460;13.322;2023-02-15T03:04:50;1.50;99.90
7204;DHT22;3643;52.460;13.322;2023-02-15T03:07:27;1.50;99.90
7204;DHT22;3643;52.460;13.322;2023-02-15T03:09:58;1.40;99.90
7204;DHT22;3643;52.460;13.322;2023-02-15T03:12:30;1.40;99.90
7204;DHT22;3643;52.460;13.322;2023-02-15T03:15:03;1.40;99.90
7204;DHT22;3643;52.460;13.322;2023-02-15T03:17:33;1.40;99.90
7204;DHT22;3643;52.460;13.322;2023-02-15T03:20:08;1.30;99.90
7204;DHT22;3643;52.460;13.322;2023-02-15T03:22:42;1.30;99.90
7204;DHT22;3643;52.460;13.322;2023-02-15T03:25:16;1.20;99.90
7204;DHT22;3643;52.460;13.322;2023-02-15T03:27:50;1.20;99.90
7204;DHT22;3643;52.460;13.322;2023-02-15T03:30:21;1.20;99.90
7204;DHT22;3643;52.460;13.322;2023-02-15T03:32:51;1.10;99.90
7204;DHT22;3643;52.460;13.322;2023-02-15T03:35:23;1.10;99.90
7204;DHT22;3643;52.460;13.322;2023-02-15T03:37:57;1.10;99.90
7204;DHT22;3643;52.460;13.322;2023-02-15T03:40:30;1.00;99.90
7204;DHT22;3643;52.460;13.322;2023-02-15T03:43:23;1.00;99.90
7204;DHT22;3643;52.460;13.322;2023-02-15T03:45:59;0.90;99.90
7204;DHT22;3643;52.460;13.322;2023-02-15T03:48:32;0.90;99.90
7204;DHT22;3643;52.460;13.322;2023-02-15T03:51:08;0.80;99.90
7204;DHT22;3643;52.460;13.322;2023-02-15T03:53:56;0.70;99.90
7204;DHT22;3643;52.460;13.322;2023-02-15T03:56:25;0.70;99.90
7204;DHT22;3643;52.460;13.322;2023-02-15T03:58:54;0.70;99.90
7204;DHT22;3643;52.460;13.322;2023-02-15T04:01:43;0.60;99.90
7204;DHT22;3643;52.460;13.322;2023-02-15T04:04:32;0.60;99.90
7204;DHT22;3643;52.460;13.322;2023-02-15T04:07:04;0.60;99.90
7204;DHT22;3643;52.460;13.322;2023-02-15T04:09:33;0.50;99.90
7204;DHT22;3643;52.460;13.322;2023-02-15T04:12:21;0.50;99.90
7204;DHT22;3643;52.460;13.322;2023-02-15T04:14:50;0.50;99.90
7204;DHT22;3643;52.460;13.322;2023-02-15T04:17:36;0.50;99.90
7204;DHT22;3643;52.460;13.322;2023-02-15T04:20:05;0.50;99.90
7204;DHT22;3643;52.460;13.322;2023-02-15T04:22:52;0.50;99.90
7204;DHT22;3643;52.460;13.322;2023-02-15T04:25:38;0.40;99.90
7204;DHT22;3643;52.460;13.322;2023-02-15T04:28:06;0.40;99.90
7204;DHT22;3643;52.460;13.322;2023-02-15T04:30:35;0.40;99.90
7204;DHT22;3643;52.460;13.322;2023-02-15T04:33:04;-0.40;99.90
7204;DHT22;3643;52.460;13.322;2023-02-15T04:35:32;0.30;99.90
7204;DHT22;3643;52.460;13.322;2023-02-15T04:38:02;0.30;99.90
7204;DHT22;3643;52.460;13.322;2023-02-15T04:40:30;0.30;99.90
7204;DHT22;3643;52.460;13.322;2023-02-15T04:42:58;0.30;99.90
7204;DHT22;3643;52.460;13.322;2023-02-15T04:45:27;0.30;99.90
7204;DHT22;3643;52.460;13.322;2023-02-15T04:47:55;0.30;99.90
7204;DHT22;3643;52.460;13.322;2023-02-15T04:50:23;0.20;99.90
7204;DHT22;3643;52.460;13.322;2023-02-15T04:52:52;0.20;99.90
7204;DHT22;3643;52.460;13.322;2023-02-15T04:55:21;0.10;99.90
7204;DHT22;3643;52.460;13.322;2023-02-15T04:57:50;0.10;99.90
7204;DHT22;3643;52.460;13.322;2023-02-15T05:00:19;0.10;99.90
7204;DHT22;3643;52.460;13.322;2023-02-15T05:02:47;0.00;99.90
7204;DHT22;3643;52.460;13.322;2023-02-15T05:05:15;0.00;99.90
7204;DHT22;3643;52.460;13.322;2023-02-15T05:07:44;0.00;99.90
7204;DHT22;3643;52.460;13.322;2023-02-15T05:10:12;0.00;99.90
7204;DHT22;3643;52.460;13.322;2023-02-15T05:12:42;0.00;99.90
7204;DHT22;3643;52.460;13.322;2023-02-15T05:15:10;0.00;99.90
7204;DHT22;3643;52.460;13.322;2023-02-15T05:17:38;-0.10;99.90
7204;DHT22;3643;52.460;13.322;2023-02-15T05:20:07;-0.10;99.90
7204;DHT22;3643;52.460;13.322;2023-02-15T05:22:35;-0.10;99.90
7204;DHT22;3643;52.460;13.322;2023-02-15T05:25:03;-0.10;99.90
7204;DHT22;3643;52.460;13.322;2023-02-15T05:27:50;-0.10;99.90
7204;DHT22;3643;52.460;13.322;2023-02-15T05:30:36;-0.10;99.90
7204;DHT22;3643;52.460;13.322;2023-02-15T05:33:04;-0.10;99.90
7204;DHT22;3643;52.460;13.322;2023-02-15T05:35:32;-0.10;99.90
7204;DHT22;3643;52.460;13.322;2023-02-15T05:38:01;-0.10;99.90
7204;DHT22;3643;52.460;13.322;2023-02-15T05:40:29;-0.10;99.90
7204;DHT22;3643;52.460;13.322;2023-02-15T05:42:58;-0.10;99.90
7204;DHT22;3643;52.460;13.322;2023-02-15T05:45:26;-0.10;99.90
7204;DHT22;3643;52.460;13.322;2023-02-15T05:47:54;-0.10;99.90
7204;DHT22;3643;52.460;13.322;2023-02-15T05:50:25;0.00;99.90
7204;DHT22;3643;52.460;13.322;2023-02-15T05:52:53;-0.10;99.90
7204;DHT22;3643;52.460;13.322;2023-02-15T05:55:21;0.00;99.90
7204;DHT22;3643;52.460;13.322;2023-02-15T05:57:49;0.00;99.90
7204;DHT22;3643;52.460;13.322;2023-02-15T06:00:19;0.00;99.90
7204;DHT22;3643;52.460;13.322;2023-02-15T06:02:47;0.00;99.90
7204;DHT22;3643;52.460;13.322;2023-02-15T06:05:15;-0.10;99.90
7204;DHT22;3643;52.460;13.322;2023-02-15T06:07:44;-0.10;99.90
7204;DHT22;3643;52.460;13.322;2023-02-15T06:10:12;-0.10;99.90
7204;DHT22;3643;52.460;13.322;2023-02-15T06:12:40;0.00;99.90
7204;DHT22;3643;52.460;13.322;2023-02-15T06:15:09;0.00;99.90
7204;DHT22;3643;52.460;13.322;2023-02-15T06:17:40;0.00;99.90
7204;DHT22;3643;52.460;13.322;2023-02-15T06:20:09;0.00;99.90
7204;DHT22;3643;52.460;13.322;2023-02-15T06:22:37;-0.10;99.90
7204;DHT22;3643;52.460;13.322;2023-02-15T06:25:06;-0.10;99.90
7204;DHT22;3643;52.460;13.322;2023-02-15T06:27:36;-0.10;99.90
7204;DHT22;3643;52.460;13.322;2023-02-15T06:30:06;-0.10;99.90
7204;DHT22;3643;52.460;13.322;2023-02-15T06:32:34;-0.10;99.90
7204;DHT22;3643;52.460;13.322;2023-02-15T06:35:04;-0.10;99.90
7204;DHT22;3643;52.460;13.322;2023-02-15T06:37:33;-0.10;99.90
7204;DHT22;3643;52.460;13.322;2023-02-15T06:40:01;0.10;99.90
7204;DHT22;3643;52.460;13.322;2023-02-15T06:42:31;0.10;99.90
7204;DHT22;3643;52.460;13.322;2023-02-15T06:44:59;0.00;99.90
7204;DHT22;3643;52.460;13.322;2023-02-15T06:47:27;-0.10;99.90
7204;DHT22;3643;52.460;13.322;2023-02-15T06:49:55;-0.10;99.90
7204;DHT22;3643;52.460;13.322;2023-02-15T06:52:26;-0.20;99.90
7204;DHT22;3643;52.460;13.322;2023-02-15T06:54:55;-0.10;99.90
7204;DHT22;3643;52.460;13.322;2023-02-15T06:57:23;-0.20;99.90
7204;DHT22;3643;52.460;13.322;2023-02-15T06:59:51;-0.20;99.90
7204;DHT22;3643;52.460;13.322;2023-02-15T07:02:19;0.00;99.90
7204;DHT22;3643;52.460;13.322;2023-02-15T07:04:48;-0.20;99.90
7204;DHT22;3643;52.460;13.322;2023-02-15T07:07:16;-0.20;99.90
7204;DHT22;3643;52.460;13.322;2023-02-15T07:09:45;-0.10;99.90
7204;DHT22;3643;52.460;13.322;2023-02-15T07:12:13;0.00;99.90
7204;DHT22;3643;52.460;13.322;2023-02-15T07:14:58;0.10;99.90
7204;DHT22;3643;52.460;13.322;2023-02-15T07:17:26;0.00;99.90
7204;DHT22;3643;52.460;13.322;2023-02-15T07:20:04;-0.20;99.90
7204;DHT22;3643;52.460;13.322;2023-02-15T07:22:34;-0.20;99.90
7204;DHT22;3643;52.460;13.322;2023-02-15T07:25:07;-0.30;99.90
7204;DHT22;3643;52.460;13.322;2023-02-15T07:27:36;-0.20;99.90
7204;DHT22;3643;52.460;13.322;2023-02-15T07:30:06;0.00;99.90
7204;DHT22;3643;52.460;13.322;2023-02-15T07:32:34;0.00;99.90
7204;DHT22;3643;52.460;13.322;2023-02-15T07:35:03;0.00;99.90
7204;DHT22;3643;52.460;13.322;2023-02-15T07:37:31;0.10;99.90
7204;DHT22;3643;52.460;13.322;2023-02-15T07:39:59;0.20;99.90
7204;DHT22;3643;52.460;13.322;2023-02-15T07:42:30;0.30;99.90
7204;DHT22;3643;52.460;13.322;2023-02-15T07:44:58;0.20;99.90
7204;DHT22;3643;52.460;13.322;2023-02-15T07:47:28;0.20;99.90
7204;DHT22;3643;52.460;13.322;2023-02-15T07:49:56;0.20;99.90
7204;DHT22;3643;52.460;13.322;2023-02-15T07:52:25;0.10;99.90
7204;DHT22;3643;52.460;13.322;2023-02-15T07:54:54;0.00;99.90
7204;DHT22;3643;52.460;13.322;2023-02-15T07:57:22;-0.20;99.90
7204;DHT22;3643;52.460;13.322;2023-02-15T07:59:52;-0.10;99.90
7204;DHT22;3643;52.460;13.322;2023-02-15T08:02:20;-0.10;99.90
7204;DHT22;3643;52.460;13.322;2023-02-15T08:04:48;-0.10;99.90
7204;DHT22;3643;52.460;13.322;2023-02-15T08:07:16;-0.10;99.90
7204;DHT22;3643;52.460;13.322;2023-02-15T08:09:44;0.00;99.90
7204;DHT22;3643;52.460;13.322;2023-02-15T08:12:12;0.10;99.90
7204;DHT22;3643;52.460;13.322;2023-02-15T08:14:40;0.20;99.90
7204;DHT22;3643;52.460;13.322;2023-02-15T08:17:10;0.20;99.90
7204;DHT22;3643;52.460;13.322;2023-02-15T08:19:38;0.10;99.90
7204;DHT22;3643;52.460;13.322;2023-02-15T08:22:07;0.30;99.90
7204;DHT22;3643;52.460;13.322;2023-02-15T08:24:37;0.40;99.90
7204;DHT22;3643;52.460;13.322;2023-02-15T08:27:06;0.70;99.90
7204;DHT22;3643;52.460;13.322;2023-02-15T08:29:36;0.90;99.90
7204;DHT22;3643;52.460;13.322;2023-02-15T08:32:07;0.80;99.90
7204;DHT22;3643;52.460;13.322;2023-02-15T08:34:39;0.70;99.90
7204;DHT22;3643;52.460;13.322;2023-02-15T08:37:07;0.70;99.90
7204;DHT22;3643;52.460;13.322;2023-02-15T08:39:36;0.90;99.90
7204;DHT22;3643;52.460;13.322;2023-02-15T08:42:04;1.20;99.90
7204;DHT22;3643;52.460;13.322;2023-02-15T08:44:32;1.00;99.90
7204;DHT22;3643;52.460;13.322;2023-02-15T08:47:00;1.20;99.90
7204;DHT22;3643;52.460;13.322;2023-02-15T08:49:30;1.40;99.90
7204;DHT22;3643;52.460;13.322;2023-02-15T08:52:00;1.40;99.90
7204;DHT22;3643;52.460;13.322;2023-02-15T08:54:28;1.20;99.90
7204;DHT22;3643;52.460;13.322;2023-02-15T08:56:56;1.00;99.90
7204;DHT22;3643;52.460;13.322;2023-02-15T08:59:25;1.30;99.90
7204;DHT22;3643;52.460;13.322;2023-02-15T09:01:54;1.20;99.90
7204;DHT22;3643;52.460;13.322;2023-02-15T09:04:22;1.00;99.90
7204;DHT22;3643;52.460;13.322;2023-02-15T09:06:50;1.10;99.90
7204;DHT22;3643;52.460;13.322;2023-02-15T09:09:21;1.30;99.90
7204;DHT22;3643;52.460;13.322;2023-02-15T09:11:51;1.50;99.90
7204;DHT22;3643;52.460;13.322;2023-02-15T09:14:25;1.80;99.90
7204;DHT22;3643;52.460;13.322;2023-02-15T09:16:54;1.80;99.90
7204;DHT22;3643;52.460;13.322;2023-02-15T09:19:24;1.70;99.90
7204;DHT22;3643;52.460;13.322;2023-02-15T09:21:52;1.70;99.90
7204;DHT22;3643;52.460;13.322;2023-02-15T09:24:22;1.60;99.90
7204;DHT22;3643;52.460;13.322;2023-02-15T09:26:50;1.60;99.90
7204;DHT22;3643;52.460;13.322;2023-02-15T09:29:18;1.60;99.90
7204;DHT22;3643;52.460;13.322;2023-02-15T09:31:48;1.60;99.90
7204;DHT22;3643;52.460;13.322;2023-02-15T09:34:18;1.50;99.90
7204;DHT22;3643;52.460;13.322;2023-02-15T09:36:47;1.90;99.90
7204;DHT22;3643;52.460;13.322;2023-02-15T09:39:17;2.00;99.90
7204;DHT22;3643;52.460;13.322;2023-02-15T09:42:22;2.10;99.90
7204;DHT22;3643;52.460;13.322;2023-02-15T09:45:20;2.20;99.90
7204;DHT22;3643;52.460;13.322;2023-02-15T09:48:17;2.20;99.90
7204;DHT22;3643;52.460;13.322;2023-02-15T09:50:55;2.20;99.90
7204;DHT22;3643;52.460;13.322;2023-02-15T09:53:40;2.10;99.90
7204;DHT22;3643;52.460;13.322;2023-02-15T09:56:18;2.10;99.90
7204;DHT22;3643;52.460;13.322;2023-02-15T09:58:55;1.90;99.90
7204;DHT22;3643;52.460;13.322;2023-02-15T10:01:33;2.20;99.90
7204;DHT22;3643;52.460;13.322;2023-02-15T10:04:29;2.50;99.90
7204;DHT22;3643;52.460;13.322;2023-02-15T10:07:08;2.60;99.90
7204;DHT22;3643;52.460;13.322;2023-02-15T10:09:48;2.30;99.90
7204;DHT22;3643;52.460;13.322;2023-02-15T10:12:33;2.20;99.90
7204;DHT22;3643;52.460;13.322;2023-02-15T10:15:31;2.20;99.90
7204;DHT22;3643;52.460;13.322;2023-02-15T10:18:16;2.20;99.90
7204;DHT22;3643;52.460;13.322;2023-02-15T10:20:55;2.40;99.90
7204;DHT22;3643;52.460;13.322;2023-02-15T10:23:37;2.50;99.90
7204;DHT22;3643;52.460;13.322;2023-02-15T10:26:13;2.60;99.90
7204;DHT22;3643;52.460;13.322;2023-02-15T10:28:46;2.90;99.90
7204;DHT22;3643;52.460;13.322;2023-02-15T10:31:23;3.20;99.90
7204;DHT22;3643;52.460;13.322;2023-02-15T10:34:12;3.20;99.90
7204;DHT22;3643;52.460;13.322;2023-02-15T10:36:57;3.30;99.90
7204;DHT22;3643;52.460;13.322;2023-02-15T10:39:38;3.30;99.90
7204;DHT22;3643;52.460;13.322;2023-02-15T10:42:15;3.60;99.90
7204;DHT22;3643;52.460;13.322;2023-02-15T10:44:58;3.80;99.90
7204;DHT22;3643;52.460;13.322;2023-02-15T10:47:51;4.20;99.90
7204;DHT22;3643;52.460;13.322;2023-02-15T10:50:33;4.20;99.90
7204;DHT22;3643;52.460;13.322;2023-02-15T10:53:18;3.80;99.90
7204;DHT22;3643;52.460;13.322;2023-02-15T10:55:56;3.90;99.90
7204;DHT22;3643;52.460;13.322;2023-02-15T10:58:36;3.60;99.90
7204;DHT22;3643;52.460;13.322;2023-02-15T11:01:13;3.70;99.90
7204;DHT22;3643;52.460;13.322;2023-02-15T11:04:05;3.60;99.90
7204;DHT22;3643;52.460;13.322;2023-02-15T11:06:38;3.50;99.90
7204;DHT22;3643;52.460;13.322;2023-02-15T11:09:10;3.50;99.90
7204;DHT22;3643;52.460;13.322;2023-02-15T11:11:40;3.50;99.90
7204;DHT22;3643;52.460;13.322;2023-02-15T11:14:15;3.60;99.90
7204;DHT22;3643;52.460;13.322;2023-02-15T11:16:50;3.70;99.90
7204;DHT22;3643;52.460;13.322;2023-02-15T11:19:22;3.90;99.90
7204;DHT22;3643;52.460;13.322;2023-02-15T11:21:58;4.10;99.90
7204;DHT22;3643;52.460;13.322;2023-02-15T11:24:29;4.00;99.90
7204;DHT22;3643;52.460;13.322;2023-02-15T11:27:00;4.10;99.90
7204;DHT22;3643;52.460;13.322;2023-02-15T11:29:33;4.20;99.90
7204;DHT22;3643;52.460;13.322;2023-02-15T11:32:17;4.30;99.90
7204;DHT22;3643;52.460;13.322;2023-02-15T11:34:52;4.40;99.90
7204;DHT22;3643;52.460;13.322;2023-02-15T11:37:27;4.50;99.90
7204;DHT22;3643;52.460;13.322;2023-02-15T11:39:55;4.60;99.90
7204;DHT22;3643;52.460;13.322;2023-02-15T11:42:25;4.70;99.90
7204;DHT22;3643;52.460;13.322;2023-02-15T11:44:59;4.80;99.90
7204;DHT22;3643;52.460;13.322;2023-02-15T11:47:30;4.80;99.90
7204;DHT22;3643;52.460;13.322;2023-02-15T11:49:59;4.90;99.90
7204;DHT22;3643;52.460;13.322;2023-02-15T11:52:28;5.00;99.90
7204;DHT22;3643;52.460;13.322;2023-02-15T11:54:56;5.10;99.90
7204;DHT22;3643;52.460;13.322;2023-02-15T11:57:28;5.20;99.90
7204;DHT22;3643;52.460;13.322;2023-02-15T12:00:02;5.30;99.90
7204;DHT22;3643;52.460;13.322;2023-02-15T12:02:33;5.30;99.90
7204;DHT22;3643;52.460;13.322;2023-02-15T12:05:10;5.40;99.90
7204;DHT22;3643;52.460;13.322;2023-02-15T12:07:42;5.40;99.90
7204;DHT22;3643;52.460;13.322;2023-02-15T12:10:22;5.50;99.90
7204;DHT22;3643;52.460;13.322;2023-02-15T12:13:10;5.60;99.90
7204;DHT22;3643;52.460;13.322;2023-02-15T12:15:41;5.60;99.90
7204;DHT22;3643;52.460;13.322;2023-02-15T12:18:19;5.70;99.90
7204;DHT22;3643;52.460;13.322;2023-02-15T12:20:49;5.80;99.90
7204;DHT22;3643;52.460;13.322;2023-02-15T12:23:19;5.80;99.90
7204;DHT22;3643;52.460;13.322;2023-02-15T12:25:51;5.90;99.90
7204;DHT22;3643;52.460;13.322;2023-02-15T12:28:25;6.00;99.90
7204;DHT22;3643;52.460;13.322;2023-02-15T12:30:55;6.00;99.90
7204;DHT22;3643;52.460;13.322;2023-02-15T12:33:28;6.10;99.90
7204;DHT22;3643;52.460;13.322;2023-02-15T12:36:01;6.20;99.90
7204;DHT22;3643;52.460;13.322;2023-02-15T12:38:31;6.20;99.90
7204;DHT22;3643;52.460;13.322;2023-02-15T12:41:03;6.30;99.90
7204;DHT22;3643;52.460;13.322;2023-02-15T12:43:33;6.40;99.90
7204;DHT22;3643;52.460;13.322;2023-02-15T12:46:21;6.40;99.90
7204;DHT22;3643;52.460;13.322;2023-02-15T12:49:06;6.50;99.90
7204;DHT22;3643;52.460;13.322;2023-02-15T12:51:49;6.60;99.90
7204;DHT22;3643;52.460;13.322;2023-02-15T12:54:38;6.70;99.90
7204;DHT22;3643;52.460;13.322;2023-02-15T12:57:31;6.80;99.90
7204;DHT22;3643;52.460;13.322;2023-02-15T13:00:04;6.90;99.90
7204;DHT22;3643;52.460;13.322;2023-02-15T13:02:41;7.00;99.90
7204;DHT22;3643;52.460;13.322;2023-02-15T13:05:18;7.10;99.90
7204;DHT22;3643;52.460;13.322;2023-02-15T13:07:54;7.20;99.90
7204;DHT22;3643;52.460;13.322;2023-02-15T13:10:27;7.30;99.90
7204;DHT22;3643;52.460;13.322;2023-02-15T13:12:57;7.40;99.90
7204;DHT22;3643;52.460;13.322;2023-02-15T13:15:33;7.50;99.90
7204;DHT22;3643;52.460;13.322;2023-02-15T13:18:04;7.60;99.90
7204;DHT22;3643;52.460;13.322;2023-02-15T13:20:34;7.70;99.90
7204;DHT22;3643;52.460;13.322;2023-02-15T13:23:22;7.70;99.90
7204;DHT22;3643;52.460;13.322;2023-02-15T13:25:56;7.80;99.90
7204;DHT22;3643;52.460;13.322;2023-02-15T13:28:31;7.90;99.90
7204;DHT22;3643;52.460;13.322;2023-02-15T13:31:02;7.90;99.90
7204;DHT22;3643;52.460;13.322;2023-02-15T13:33:33;8.40;99.90
7204;DHT22;3643;52.460;13.322;2023-02-15T13:36:05;8.00;99.90
7204;DHT22;3643;52.460;13.322;2023-02-15T13:38:49;8.10;99.90
7204;DHT22;3643;52.460;13.322;2023-02-15T13:41:23;8.20;99.90
7204;DHT22;3643;52.460;13.322;2023-02-15T13:44:03;8.30;99.90
7204;DHT22;3643;52.460;13.322;2023-02-15T13:46:45;8.40;99.90
7204;DHT22;3643;52.460;13.322;2023-02-15T13:49:26;8.50;99.90
7204;DHT22;3643;52.460;13.322;2023-02-15T13:52:05;8.50;99.90
7204;DHT22;3643;52.460;13.322;2023-02-15T13:54:53;8.50;99.90
7204;DHT22;3643;52.460;13.322;2023-02-15T13:57:43;8.50;99.90
7204;DHT22;3643;52.460;13.322;2023-02-15T14:00:21;8.50;99.90
7204;DHT22;3643;52.460;13.322;2023-02-15T14:06:07;8.50;99.90
7204;DHT22;3643;52.460;13.322;2023-02-15T14:08:55;8.60;99.90
7204;DHT22;3643;52.460;13.322;2023-02-15T14:11:35;8.70;99.90
7204;DHT22;3643;52.460;13.322;2023-02-15T14:14:22;8.70;99.90
7204;DHT22;3643;52.460;13.322;2023-02-15T14:17:00;8.70;99.90
7204;DHT22;3643;52.460;13.322;2023-02-15T14:19:39;8.70;99.90
7204;DHT22;3643;52.460;13.322;2023-02-15T14:22:18;8.80;99.90
7204;DHT22;3643;52.460;13.322;2023-02-15T14:24:58;8.80;99.90
7204;DHT22;3643;52.460;13.322;2023-02-15T14:27:41;8.90;99.90
7204;DHT22;3643;52.460;13.322;2023-02-15T14:30:17;9.00;99.90
7204;DHT22;3643;52.460;13.322;2023-02-15T14:32:50;9.10;99.90
7204;DHT22;3643;52.460;13.322;2023-02-15T14:35:22;9.10;99.90
7204;DHT22;3643;52.460;13.322;2023-02-15T14:37:58;9.20;99.90
7204;DHT22;3643;52.460;13.322;2023-02-15T14:40:34;9.30;99.90
7204;DHT22;3643;52.460;13.322;2023-02-15T14:43:34;9.30;99.90
7204;DHT22;3643;52.460;13.322;2023-02-15T14:46:14;9.30;99.90
7204;DHT22;3643;52.460;13.322;2023-02-15T14:48:47;9.30;99.90
7204;DHT22;3643;52.460;13.322;2023-02-15T14:51:57;9.30;99.90
7204;DHT22;3643;52.460;13.322;2023-02-15T14:54:59;9.20;99.90
7204;DHT22;3643;52.460;13.322;2023-02-15T14:57:31;9.20;99.90
7204;DHT22;3643;52.460;13.322;2023-02-15T15:00:30;9.30;99.90
7204;DHT22;3643;52.460;13.322;2023-02-15T15:03:00;9.30;99.90
7204;DHT22;3643;52.460;13.322;2023-02-15T15:08:45;9.20;99.90
7204;DHT22;3643;52.460;13.322;2023-02-15T15:11:40;9.20;99.90
7204;DHT22;3643;52.460;13.322;2023-02-15T15:16:56;9.20;99.90
7204;DHT22;3643;52.460;13.322;2023-02-15T15:22:35;9.30;99.90
7204;DHT22;3643;52.460;13.322;2023-02-15T15:25:09;9.10;99.90
7204;DHT22;3643;52.460;13.322;2023-02-15T15:27:53;9.00;99.90
7204;DHT22;3643;52.460;13.322;2023-02-15T15:33:51;8.80;99.90
7204;DHT22;3643;52.460;13.322;2023-02-15T15:42:48;8.60;99.90
7204;DHT22;3643;52.460;13.322;2023-02-15T15:45:45;8.60;99.90
7204;DHT22;3643;52.460;13.322;2023-02-15T15:48:28;8.60;99.90
7204;DHT22;3643;52.460;13.322;2023-02-15T15:51:02;8.50;99.90
7204;DHT22;3643;52.460;13.322;2023-02-15T15:53:38;8.50;99.90
7204;DHT22;3643;52.460;13.322;2023-02-15T15:56:13;8.40;99.90
7204;DHT22;3643;52.460;13.322;2023-02-15T15:58:46;8.20;99.90
7204;DHT22;3643;52.460;13.322;2023-02-15T16:01:16;8.80;99.90
7204;DHT22;3643;52.460;13.322;2023-02-15T16:03:53;8.00;99.90
7204;DHT22;3643;52.460;13.322;2023-02-15T16:06:29;8.10;99.90
7204;DHT22;3643;52.460;13.322;2023-02-15T16:09:10;8.00;99.90
7204;DHT22;3643;52.460;13.322;2023-02-15T16:11:38;8.00;99.90
7204;DHT22;3643;52.460;13.322;2023-02-15T16:14:13;8.00;99.90
7204;DHT22;3643;52.460;13.322;2023-02-15T16:16:49;7.90;99.90
7204;DHT22;3643;52.460;13.322;2023-02-15T16:19:22;7.90;99.90
7204;DHT22;3643;52.460;13.322;2023-02-15T16:21:52;7.80;99.90
7204;DHT22;3643;52.460;13.322;2023-02-15T16:24:54;7.80;99.90
7204;DHT22;3643;52.460;13.322;2023-02-15T16:27:35;7.70;99.90
7204;DHT22;3643;52.460;13.322;2023-02-15T16:30:27;7.70;99.90
7204;DHT22;3643;52.460;13.322;2023-02-15T16:33:05;7.60;99.90
7204;DHT22;3643;52.460;13.322;2023-02-15T16:35:34;7.50;99.90
7204;DHT22;3643;52.460;13.322;2023-02-15T16:38:04;7.40;99.90
7204;DHT22;3643;52.460;13.322;2023-02-15T16:40:41;7.40;99.90
7204;DHT22;3643;52.460;13.322;2023-02-15T16:43:18;7.30;99.90
7204;DHT22;3643;52.460;13.322;2023-02-15T16:45:48;7.30;99.90
7204;DHT22;3643;52.460;13.322;2023-02-15T16:48:20;7.20;99.90
7204;DHT22;3643;52.460;13.322;2023-02-15T16:50:51;7.10;99.90
7204;DHT22;3643;52.460;13.322;2023-02-15T16:53:25;6.90;99.90
7204;DHT22;3643;52.460;13.322;2023-02-15T16:55:55;6.70;99.90
7204;DHT22;3643;52.460;13.322;2023-02-15T16:58:29;6.60;99.90
7204;DHT22;3643;52.460;13.322;2023-02-15T17:00:59;7.20;99.90
7204;DHT22;3643;52.460;13.322;2023-02-15T17:03:30;6.30;99.90
7204;DHT22;3643;52.460;13.322;2023-02-15T17:05:59;6.10;99.90
7204;DHT22;3643;52.460;13.322;2023-02-15T17:08:31;6.10;99.90
7204;DHT22;3643;52.460;13.322;2023-02-15T17:11:17;6.10;99.90